Time;durP1;ratioP1;P1;durP2;ratioP2;P2;SDS_P1;SDS_P2;PMS_P1;PMS_P2;Temp;Humidity;BMP_temperature;BMP_pressure;BME280_temperature;BME280_humidity;BME280_pressure;Samples;Min_cycle;Max_cycle;Signal;HPM_P1;HPM_P2
2023/05/26 00:02:19;;;;;;;5.00;3.40;;;;;;;22.37;45.51;100596.46;104259;1288;70085;-89
2023/05/26 00:05:31;;;;;;;4.30;3.40;;;;;;;22.35;45.53;100596.06;104490;1292;69993;-90
2023/05/26 00:07:57;;;;;;;4.50;3.10;;;;;;;22.35;45.51;100597.40;104164;1293;69908;-88
2023/05/26 00:10:24;;;;;;;6.20;3.50;;;;;;;22.34;45.44;100598.27;104700;1285;69996;-89
2023/05/26 00:12:50;;;;;;;5.90;3.50;;;;;;;22.35;45.50;100602.11;104515;1289;70129;-89
2023/05/26 00:15:15;;;;;;;4.00;3.20;;;;;;;22.34;45.52;100607.55;104535;1286;69911;-90
2023/05/26 00:17:41;;;;;;;3.90;3.10;;;;;;;22.34;45.48;100614.98;105038;1285;69998;-89
2023/05/26 00:20:07;;;;;;;4.40;3.50;;;;;;;22.33;45.47;100618.16;104236;1291;70067;-89
2023/05/26 00:22:35;;;;;;;5.30;3.70;;;;;;;22.34;45.51;100616.52;104622;1282;70060;-89
2023/05/26 00:25:01;;;;;;;5.30;3.90;;;;;;;22.33;45.48;100612.68;104571;1288;70181;-89
2023/05/26 00:27:27;;;;;;;4.40;3.50;;;;;;;22.34;45.34;100620.56;104490;1290;70264;-88
2023/05/26 00:29:53;;;;;;;3.60;3.30;;;;;;;22.34;45.52;100619.20;104709;1282;70073;-89
2023/05/26 00:37:56;;;;;;;6.60;3.40;;;;;;;22.32;45.40;100625.91;104357;1291;72403;-88
2023/05/26 00:40:21;;;;;;;4.10;3.70;;;;;;;22.32;45.33;100622.77;104721;1285;70065;-88
2023/05/26 00:42:47;;;;;;;4.40;3.50;;;;;;;22.32;45.51;100622.52;104599;1288;70083;-89
2023/05/26 00:45:13;;;;;;;3.90;3.50;;;;;;;22.32;45.39;100622.42;104656;1285;70069;-88
2023/05/26 00:47:38;;;;;;;4.30;3.50;;;;;;;22.32;45.46;100625.85;104565;1282;70125;-88
2023/05/26 00:50:05;;;;;;;5.00;3.80;;;;;;;22.32;45.43;100622.22;104135;1292;70030;-88
2023/05/26 00:52:31;;;;;;;3.80;3.40;;;;;;;22.32;45.48;100619.81;104536;1288;70059;-88
2023/05/26 00:54:57;;;;;;;4.10;3.70;;;;;;;22.31;45.44;100615.75;104918;1285;70063;-89
2023/05/26 00:57:22;;;;;;;4.40;3.50;;;;;;;22.31;45.51;100615.80;104643;1288;69999;-89
2023/05/26 00:59:49;;;;;;;4.50;3.40;;;;;;;22.31;45.54;100612.69;104894;1282;70068;-88
2023/05/26 01:02:25;;;;;;;4.50;4.00;;;;;;;22.31;45.52;100608.73;104491;1282;70075;31
2023/05/26 01:04:53;;;;;;;3.40;3.10;;;;;;;22.31;45.50;100607.41;104346;1290;70055;-88
2023/05/26 01:07:20;;;;;;;3.90;3.40;;;;;;;22.30;45.44;100609.86;104620;1285;74760;-88
2023/05/26 01:09:47;;;;;;;5.80;4.00;;;;;;;22.30;45.44;100612.64;104631;1286;84076;-88
2023/05/26 01:12:42;;;;;;;4.60;3.70;;;;;;;22.30;45.38;100609.81;104919;1280;70055;-89
2023/05/26 01:15:26;;;;;;;4.00;3.60;;;;;;;22.29;45.45;100603.96;104673;1285;70008;-89
2023/05/26 01:18:10;;;;;;;5.00;3.60;;;;;;;22.29;45.35;100608.17;104351;1294;70019;-89
2023/05/26 01:20:43;;;;;;;5.90;3.40;;;;;;;22.29;45.44;100615.20;104518;1288;74388;-88
2023/05/26 01:24:06;;;;;;;3.60;3.10;;;;;;;22.29;45.35;100606.90;104227;1288;83226;31
2023/05/26 01:26:37;;;;;;;4.80;3.10;;;;;;;22.28;45.33;100603.77;104521;1294;72518;-88
2023/05/26 01:31:33;;;;;;;4.00;3.40;;;;;;;22.28;45.42;100599.27;104591;1288;69999;-88
2023/05/26 01:34:00;;;;;;;4.10;3.40;;;;;;;22.27;45.34;100600.50;104584;1289;70036;-88
2023/05/26 01:36:28;;;;;;;7.10;3.60;;;;;;;22.27;45.44;100599.33;104881;1290;83118;-88
2023/05/26 01:38:53;;;;;;;5.50;3.40;;;;;;;22.27;45.31;100597.12;104987;1284;73325;-88
2023/05/26 01:41:26;;;;;;;4.70;3.70;;;;;;;22.27;45.28;100598.96;104630;1280;70066;-88
2023/05/26 01:46:33;;;;;;;4.80;3.30;;;;;;;22.27;45.33;100595.33;104546;1285;72939;-88
2023/05/26 01:49:01;;;;;;;4.40;3.30;;;;;;;22.27;45.29;100592.35;104645;1286;82743;-89
2023/05/26 01:51:30;;;;;;;4.60;3.60;;;;;;;22.27;45.18;100590.81;104583;1287;71434;-87
2023/05/26 01:53:56;;;;;;;6.60;3.30;;;;;;;22.26;45.19;100583.59;104645;1287;67888;-88
2023/05/26 01:56:22;;;;;;;5.40;3.70;;;;;;;22.27;45.31;100585.74;104571;1284;70054;-88
2023/05/26 01:58:48;;;;;;;4.50;3.90;;;;;;;22.26;45.21;100581.54;104319;1289;70102;-88
2023/05/26 02:01:13;;;;;;;4.00;3.50;;;;;;;22.26;45.25;100577.18;104574;1285;70075;-88
2023/05/26 02:03:42;;;;;;;4.40;3.40;;;;;;;22.25;45.22;100574.47;104685;1285;70065;-89
2023/05/26 02:06:07;;;;;;;4.70;3.50;;;;;;;22.26;45.21;100578.15;104487;1293;70462;-88
2023/05/26 02:08:33;;;;;;;4.70;3.70;;;;;;;22.25;45.18;100578.78;104530;1287;70088;-88
2023/05/26 02:11:07;;;;;;;5.40;3.70;;;;;;;22.25;45.16;100580.77;104637;1289;70060;-88
2023/05/26 02:13:32;;;;;;;5.10;3.70;;;;;;;22.25;45.25;100577.75;104491;1292;73382;-89
2023/05/26 02:15:58;;;;;;;4.70;3.50;;;;;;;22.25;45.13;100577.04;104920;1286;69985;-89
2023/05/26 02:18:24;;;;;;;4.00;3.60;;;;;;;22.24;45.15;100575.44;104753;1285;70094;-88
2023/05/26 02:20:57;;;;;;;5.00;3.50;;;;;;;22.24;45.03;100573.45;104691;1289;72762;-88
2023/05/26 02:23:23;;;;;;;5.70;3.40;;;;;;;22.24;45.11;100574.32;104503;1284;70134;-88
2023/05/26 02:28:20;;;;;;;4.10;3.70;;;;;;;22.24;45.05;100574.83;104626;1285;70066;-89
2023/05/26 02:30:46;;;;;;;4.10;3.40;;;;;;;22.23;45.07;100571.05;104728;1285;69989;-90
2023/05/26 02:33:11;;;;;;;5.90;3.90;;;;;;;22.23;45.00;100575.91;104610;1288;70146;-89
2023/05/26 02:35:37;;;;;;;4.30;3.90;;;;;;;22.23;45.13;100576.84;104741;1286;70077;-89
2023/05/26 02:38:03;;;;;;;5.00;3.70;;;;;;;22.22;45.10;100576.79;104365;1280;69985;-89
2023/05/26 02:40:29;;;;;;;6.10;3.60;;;;;;;22.21;45.03;100578.89;104364;1288;70030;-89
2023/05/26 02:42:54;;;;;;;4.30;3.60;;;;;;;22.22;44.94;100584.79;104754;1281;70044;-89
2023/05/26 02:45:21;;;;;;;6.00;4.00;;;;;;;22.22;45.01;100587.45;104652;1289;70021;-89
2023/05/26 02:47:46;;;;;;;6.00;3.70;;;;;;;22.22;45.04;100590.01;105132;1279;69910;-90
2023/05/26 02:50:12;;;;;;;5.20;3.90;;;;;;;22.22;45.09;100595.75;104690;1286;70072;-89
2023/05/26 02:52:38;;;;;;;4.20;3.80;;;;;;;22.22;45.01;100594.06;103884;1289;70485;-89
2023/05/26 02:55:04;;;;;;;5.40;3.80;;;;;;;22.22;45.14;100595.84;104742;1288;70072;-89
2023/05/26 02:57:30;;;;;;;6.80;3.70;;;;;;;22.21;45.04;100598.36;104680;1289;72443;-89
2023/05/26 02:59:55;;;;;;;6.80;4.00;;;;;;;22.21;45.02;100595.75;104605;1287;70056;-89
2023/05/26 03:02:21;;;;;;;4.30;3.90;;;;;;;22.21;44.99;100599.43;104694;1288;70183;-89
2023/05/26 03:04:55;;;;;;;8.10;4.00;;;;;;;22.20;44.95;100598.63;104437;1289;70069;-90
2023/05/26 03:07:22;;;;;;;5.60;4.10;;;;;;;22.20;45.12;100597.95;104237;1294;83156;-89
2023/05/26 03:09:48;;;;;;;6.40;4.10;;;;;;;22.21;44.98;100599.18;105040;1287;72465;-88
2023/05/26 03:12:15;;;;;;;6.20;4.20;;;;;;;22.21;45.01;100601.95;104980;1288;70065;-89
2023/05/26 03:14:42;;;;;;;4.70;3.80;;;;;;;22.21;45.00;100604.36;104748;1285;70035;-88
2023/05/26 03:17:08;;;;;;;7.80;6.10;;;;;;;22.21;45.07;100604.57;104604;1286;69888;-87
2023/05/26 03:19:34;;;;;;;16.50;14.70;;;;;;;22.21;45.06;100605.48;104063;1289;70076;-90
2023/05/26 03:22:01;;;;;;;9.70;7.80;;;;;;;22.20;45.13;100606.88;104712;1287;70061;-89
2023/05/26 03:24:27;;;;;;;15.60;8.60;;;;;;;22.17;45.01;100607.45;104692;1288;70003;-89
2023/05/26 03:26:52;;;;;;;14.60;8.90;;;;;;;22.14;44.93;100612.12;104695;1286;70130;-89
2023/05/26 03:29:18;;;;;;;10.20;6.50;;;;;;;22.12;44.96;100610.75;104393;1289;70105;-89
2023/05/26 03:34:09;;;;;;;10.40;5.40;;;;;;;22.06;45.19;100613.88;104531;1289;70842;-88
2023/05/26 03:36:38;;;;;;;8.60;4.90;;;;;;;22.05;45.40;100608.50;104403;1289;70057;-88
2023/05/26 03:39:05;;;;;;;8.20;5.50;;;;;;;22.03;45.37;100610.55;104620;1285;73838;-88
2023/05/26 03:41:31;;;;;;;13.20;6.00;;;;;;;22.03;45.52;100613.48;104241;1289;69948;-88
2023/05/26 03:43:57;;;;;;;8.70;5.80;;;;;;;22.03;45.61;100612.25;104342;1283;67393;-88
2023/05/26 03:46:23;;;;;;;17.50;7.70;;;;;;;22.03;45.69;100615.78;104180;1289;69987;-88
2023/05/26 03:48:52;;;;;;;19.60;14.50;;;;;;;22.03;45.59;100615.93;104870;1288;70080;-89
2023/05/26 03:51:21;;;;;;;22.30;18.60;;;;;;;22.04;45.73;100614.45;104366;1289;72559;-89
2023/05/26 03:53:47;;;;;;;23.30;17.60;;;;;;;22.04;45.74;100619.98;104441;1289;70600;-89
2023/05/26 03:56:13;;;;;;;23.80;15.30;;;;;;;22.04;45.60;100624.73;104725;1285;69998;-89
2023/05/26 03:58:44;;;;;;;20.10;14.90;;;;;;;22.04;45.66;100629.45;104458;1278;69425;31
2023/05/26 04:01:10;;;;;;;15.00;12.90;;;;;;;22.05;45.60;100636.02;104744;1288;70084;-89
2023/05/26 04:03:36;;;;;;;18.50;13.00;;;;;;;22.05;45.65;100634.38;104528;1288;70060;-88
2023/05/26 04:06:02;;;;;;;18.00;11.70;;;;;;;22.05;45.48;100633.25;104664;1286;68139;-88
2023/05/26 04:08:31;;;;;;;17.30;11.40;;;;;;;22.06;45.46;100640.52;104814;1285;68591;-88
2023/05/26 04:10:56;;;;;;;19.10;11.10;;;;;;;22.06;45.60;100637.66;105005;1282;68556;-89
2023/05/26 04:13:23;;;;;;;15.60;9.80;;;;;;;22.07;45.48;100634.67;104305;1289;69999;-89
2023/05/26 04:15:57;;;;;;;12.60;9.70;;;;;;;22.07;45.69;100638.63;105202;1284;73401;-89
2023/05/26 04:18:23;;;;;;;12.20;10.00;;;;;;;22.07;45.48;100640.47;104898;1290;70549;-89
2023/05/26 04:20:49;;;;;;;14.00;9.80;;;;;;;22.07;45.52;100638.83;105352;1285;70042;-89
2023/05/26 04:23:15;;;;;;;9.80;8.80;;;;;;;22.08;45.52;100633.24;105013;1288;70069;-89
2023/05/26 04:25:46;;;;;;;12.90;8.30;;;;;;;22.09;45.46;100636.27;105192;1279;70075;31
2023/05/26 04:28:11;;;;;;;11.40;7.30;;;;;;;22.09;45.60;100630.63;105149;1289;74680;-89
2023/05/26 04:30:42;;;;;;;9.60;7.60;;;;;;;22.09;45.47;100632.36;105489;1285;67230;-89
2023/05/26 04:33:12;;;;;;;;;;;;;;;22.09;45.44;100629.45;104906;1292;73543;-88
2023/05/26 04:35:38;;;;;;;8.50;6.50;;;;;;;22.06;45.33;100630.52;105142;1287;69897;-89
2023/05/26 04:38:48;;;;;;;8.00;6.90;;;;;;;22.07;45.42;100628.08;105312;1285;69960;-88
2023/05/26 04:41:21;;;;;;;9.40;5.90;;;;;;;22.07;45.42;100627.10;105428;1288;73618;-89
2023/05/26 04:47:03;;;;;;;9.70;5.30;;;;;;;22.08;45.40;100625.25;106009;1284;71259;-87
2023/05/26 04:53:25;;;;;;;;;;;;;;;22.05;45.29;100623.41;84402;1291;67023;-91
2023/05/26 05:02:11;;;;;;;8.40;5.00;;;;;;;21.94;45.43;100627.89;105142;1291;71699;-89
2023/05/26 05:04:37;;;;;;;13.80;5.60;;;;;;;21.91;45.48;100627.23;105249;1293;69944;-88
2023/05/26 05:07:04;;;;;;;14.80;4.90;;;;;;;21.91;45.61;100634.25;105301;1295;68276;-91
2023/05/26 05:13:05;;;;;;;9.90;5.10;;;;;;;21.89;45.54;100650.09;83319;1327;80263;-89
2023/05/26 05:18:21;;;;;;;8.10;4.90;;;;;;;21.90;45.70;100636.55;105852;1290;68406;-89
2023/05/26 05:23:21;;;;;;;7.50;4.40;;;;;;;21.93;45.55;100641.67;105039;1294;73620;-90
2023/05/26 05:25:49;;;;;;;9.90;5.10;;;;;;;21.94;45.68;100643.66;104951;1294;69290;-88
2023/05/26 05:28:31;;;;;;;10.60;4.90;;;;;;;21.95;45.59;100645.01;105205;1294;72182;-90
2023/05/26 05:31:15;;;;;;;10.40;5.10;;;;;;;21.96;45.56;100644.38;105157;1294;68718;-88
2023/05/26 05:33:42;;;;;;;10.30;5.00;;;;;;;21.98;45.51;100646.42;104890;1293;68416;-88
2023/05/26 05:36:09;;;;;;;9.20;4.30;;;;;;;21.99;45.54;100644.43;104899;1294;73578;-89
2023/05/26 05:38:35;;;;;;;12.10;5.00;;;;;;;21.99;45.55;100651.14;104735;1294;83004;-88
2023/05/26 05:41:06;;;;;;;9.10;5.10;;;;;;;22.01;45.52;100655.70;104821;1295;69490;-89
2023/05/26 05:43:32;;;;;;;9.80;4.80;;;;;;;22.03;45.58;100658.73;104801;1293;70102;-87
2023/05/26 05:45:58;;;;;;;18.10;4.60;;;;;;;22.03;45.52;100658.36;105038;1293;68185;-86
2023/05/26 05:48:24;;;;;;;9.00;4.40;;;;;;;22.05;45.42;100662.14;104764;1294;69989;-87
2023/05/26 05:50:49;;;;;;;7.70;4.50;;;;;;;22.06;45.38;100661.02;104720;1294;69752;-86
2023/05/26 05:53:16;;;;;;;7.70;4.60;;;;;;;22.06;45.48;100662.30;104997;1294;69996;-87
2023/05/26 05:55:43;;;;;;;13.00;4.70;;;;;;;22.06;45.44;100661.88;104770;1294;70865;-87
2023/05/26 06:28:17;;;;;;;7.00;4.30;;;;;;;22.20;45.66;100678.02;83854;1297;68472;-88
2023/05/26 06:30:42;;;;;;;8.00;4.40;;;;;;;22.22;45.48;100683.39;105629;1298;74816;-89
2023/05/26 06:39:09;;;;;;;9.20;4.60;;;;;;;22.25;45.35;100672.88;105996;1288;67931;-88
2023/05/26 06:44:17;;;;;;;12.30;4.60;;;;;;;22.27;45.31;100675.95;105977;1292;72786;-89
2023/05/26 06:52:39;;;;;;;14.40;4.70;;;;;;;22.29;45.26;100683.52;106031;1292;67832;-89
2023/05/26 06:55:30;;;;;;;8.40;4.40;;;;;;;22.29;45.18;100689.17;106097;1292;67443;31
2023/05/26 06:58:16;;;;;;;;;;;;;;;22.29;45.06;100684.55;105881;1294;67095;-88
2023/05/26 07:01:05;;;;;;;12.50;4.80;;;;;;;22.27;45.09;100684.46;105959;1295;67686;-89
2023/05/26 07:04:03;;;;;;;17.20;5.00;;;;;;;22.28;45.09;100681.73;105773;1295;72392;-87
2023/05/26 07:06:29;;;;;;;9.90;5.40;;;;;;;22.29;44.91;100680.20;105777;1295;68205;-87
2023/05/26 07:08:54;;;;;;;12.20;5.70;;;;;;;22.30;44.89;100683.02;105572;1295;245069;-87
2023/05/26 07:11:21;;;;;;;13.10;5.30;;;;;;;22.31;44.93;100681.79;105846;1294;67679;-88
2023/05/26 07:13:46;;;;;;;13.50;5.10;;;;;;;22.33;44.72;100682.66;105662;1297;69089;-85
2023/05/26 07:16:15;;;;;;;9.10;5.10;;;;;;;22.33;44.93;100682.29;105709;1295;68623;-87
2023/05/26 07:21:21;;;;;;;9.90;5.00;;;;;;;22.41;44.96;100683.70;106035;1292;73028;-90
2023/05/26 07:23:57;;;;;;;10.10;5.10;;;;;;;22.44;45.13;100686.89;106117;1293;82871;-92
2023/05/26 07:29:53;;;;;;;13.80;4.70;;;;;;;22.50;45.23;100685.00;106329;1288;67911;-92
2023/05/26 07:32:54;;;;;;;8.20;4.70;;;;;;;22.52;45.35;100687.75;106097;1288;67784;-90
2023/05/26 07:46:25;;;;;;;11.70;4.40;;;;;;;22.65;45.40;100686.48;106133;1294;67250;-91
2023/05/26 07:49:43;;;;;;;9.50;4.80;;;;;;;22.68;45.34;100677.60;106034;1288;67928;31
2023/05/26 07:52:17;;;;;;;7.70;4.70;;;;;;;22.70;45.45;100681.38;105909;1288;73783;-87
2023/05/26 07:54:59;;;;;;;9.70;4.90;;;;;;;22.72;45.41;100686.72;105736;1294;82970;-88
2023/05/26 08:03:49;;;;;;;8.70;4.40;;;;;;;22.71;45.08;100684.10;105821;1297;67772;-92
2023/05/26 08:06:15;;;;;;;16.50;4.70;;;;;;;22.69;44.92;100683.65;105835;1296;73526;-90
2023/05/26 08:08:41;;;;;;;9.40;4.40;;;;;;;22.69;44.93;100687.96;105799;1296;67505;-86
2023/05/26 08:11:12;;;;;;;11.10;4.80;;;;;;;22.67;44.84;100687.34;105829;1287;68921;-86
2023/05/26 08:13:39;;;;;;;10.00;4.30;;;;;;;22.65;44.73;100689.25;105958;1292;68321;-86
2023/05/26 08:16:06;;;;;;;11.50;5.30;;;;;;;22.64;44.56;100687.40;105921;1293;69386;-86
2023/05/26 08:21:13;;;;;;;13.00;5.40;;;;;;;22.62;44.38;100686.61;105962;1288;72973;-88
2023/05/26 08:23:42;;;;;;;7.10;4.80;;;;;;;22.62;44.31;100686.08;106034;1292;71820;-89
2023/05/26 08:32:41;;;;;;;12.10;5.30;;;;;;;22.61;44.19;100682.96;85036;1307;68209;-90
2023/05/26 08:35:07;;;;;;;8.50;4.80;;;;;;;22.62;44.13;100690.55;105857;1292;83254;-89
2023/05/26 08:40:29;;;;;;;14.70;5.30;;;;;;;22.61;44.01;100687.53;106164;1286;68810;-90
2023/05/26 08:42:56;;;;;;;10.30;5.50;;;;;;;22.62;44.04;100689.57;105778;1294;69140;-90
2023/05/26 08:48:12;;;;;;;16.60;6.20;;;;;;;22.63;43.91;100691.71;105969;1295;82207;-91
2023/05/26 08:50:41;;;;;;;16.20;7.20;;;;;;;22.63;43.92;100689.61;105979;1295;67821;-87
2023/05/26 08:53:06;;;;;;;13.70;7.80;;;;;;;22.64;43.94;100688.58;106190;1294;68791;-88
2023/05/26 08:59:02;;;;;;;14.30;6.60;;;;;;;22.64;44.10;100690.42;106039;1291;73260;-88
2023/05/26 09:01:27;;;;;;;13.60;5.80;;;;;;;22.64;44.03;100692.52;106006;1292;67875;-88
2023/05/26 09:03:53;;;;;;;11.00;6.00;;;;;;;22.65;44.09;100690.67;106086;1292;68180;-85
2023/05/26 09:06:21;;;;;;;13.70;6.20;;;;;;;22.66;44.23;100690.63;105917;1294;67251;-88
2023/05/26 09:11:54;;;;;;;16.40;7.00;;;;;;;22.70;44.45;100683.73;105926;1294;72434;-90
2023/05/26 09:14:22;;;;;;;12.30;6.10;;;;;;;22.71;44.48;100681.23;106189;1291;83958;-90
2023/05/26 09:16:48;;;;;;;11.60;6.30;;;;;;;22.72;44.44;100681.59;106092;1294;72390;-89
2023/05/26 09:29:31;;;;;;;11.00;7.00;;;;;;;22.71;44.44;100678.51;106131;1294;85453;-91
2023/05/26 09:31:58;;;;;;;11.10;7.20;;;;;;;22.71;44.36;100672.15;106031;1290;72603;-89
2023/05/26 09:34:24;;;;;;;11.60;6.80;;;;;;;22.72;44.38;100670.88;106122;1296;67769;-88
2023/05/26 09:37:14;;;;;;;13.00;7.30;;;;;;;22.73;44.45;100671.11;106235;1288;69016;-89
2023/05/26 09:40:00;;;;;;;10.70;7.40;;;;;;;22.73;44.51;100673.98;105794;1295;73884;-89
2023/05/26 09:43:17;;;;;;;14.90;7.40;;;;;;;22.74;44.60;100672.96;105883;1296;83063;-91
2023/05/26 09:49:12;;;;;;;8.20;6.60;;;;;;;22.73;44.59;100673.90;106036;1295;67173;-90
2023/05/26 09:51:59;;;;;;;18.60;7.30;;;;;;;22.74;44.57;100675.73;105953;1296;67769;-90
2023/05/26 09:54:26;;;;;;;13.70;6.80;;;;;;;22.74;44.47;100672.55;105982;1294;73820;-90
2023/05/26 09:57:05;;;;;;;11.00;6.80;;;;;;;22.73;44.49;100674.86;105868;1294;82848;-87
2023/05/26 10:02:47;;;;;;;14.70;6.20;;;;;;;22.72;44.44;100670.77;105738;1298;67702;-90
2023/05/26 10:05:16;;;;;;;16.90;6.50;;;;;;;22.72;44.41;100667.58;105573;1298;68002;-87
2023/05/26 10:07:42;;;;;;;18.80;6.60;;;;;;;22.72;44.30;100666.40;105613;1300;67904;-86
2023/05/26 10:10:08;;;;;;;11.90;6.80;;;;;;;22.72;44.32;100665.59;105617;1299;67638;-86
2023/05/26 10:12:34;;;;;;;14.10;6.70;;;;;;;22.73;44.31;100661.27;105463;1297;67393;-86
2023/05/26 10:15:00;;;;;;;11.00;6.30;;;;;;;22.73;44.28;100658.70;105451;1299;67806;-87
2023/05/26 10:17:26;;;;;;;15.60;6.90;;;;;;;22.74;44.33;100659.38;105673;1299;68123;-87
2023/05/26 10:19:55;;;;;;;12.60;6.70;;;;;;;22.74;44.32;100657.21;105798;1297;67743;-87
2023/05/26 10:22:28;;;;;;;15.10;6.40;;;;;;;22.75;44.35;100648.65;105467;1298;67251;-88
2023/05/26 10:25:00;;;;;;;12.90;6.20;;;;;;;22.76;44.40;100640.84;105672;1297;72717;-87
2023/05/26 10:27:51;;;;;;;14.40;6.40;;;;;;;22.76;44.37;100636.38;105409;1298;68556;-87
2023/05/26 10:30:17;;;;;;;11.60;5.70;;;;;;;22.76;44.32;100633.25;105446;1299;67238;-87
2023/05/26 10:32:56;;;;;;;14.60;6.50;;;;;;;22.75;44.30;100631.15;105544;1298;73568;-86
2023/05/26 10:35:22;;;;;;;11.10;6.00;;;;;;;22.76;44.40;100633.10;105540;1300;84358;-87
2023/05/26 10:37:54;;;;;;;11.90;5.70;;;;;;;22.78;44.48;100626.58;105632;1299;67941;-87
2023/05/26 10:40:41;;;;;;;11.40;5.90;;;;;;;22.79;44.58;100625.52;105593;1299;68497;-87
2023/05/26 10:43:22;;;;;;;10.30;5.40;;;;;;;22.80;44.53;100617.36;105655;1299;67313;-87
2023/05/26 10:45:58;;;;;;;11.50;5.60;;;;;;;22.81;44.53;100611.67;105502;1299;73497;-87
2023/05/26 10:48:40;;;;;;;17.80;6.10;;;;;;;22.82;44.51;100604.08;105316;1299;83255;-87
2023/05/26 10:51:15;;;;;;;8.90;5.70;;;;;;;22.82;44.57;100596.75;105337;1299;68344;-91
2023/05/26 10:53:42;;;;;;;13.90;5.40;;;;;;;22.84;44.52;100591.77;105284;1300;68008;-88
2023/05/26 10:56:11;;;;;;;18.00;5.80;;;;;;;22.87;44.55;100591.22;105669;1298;69170;-87
2023/05/26 10:58:41;;;;;;;9.80;5.50;;;;;;;22.87;44.46;100588.18;105438;1299;74595;-87
2023/05/26 11:01:19;;;;;;;11.40;5.50;;;;;;;22.87;44.45;100586.76;105628;1297;83074;-87
2023/05/26 11:03:47;;;;;;;7.80;5.00;;;;;;;22.87;44.30;100581.77;105697;1297;72338;-87
2023/05/26 11:06:18;;;;;;;12.40;5.20;;;;;;;22.86;44.27;100578.20;105835;1288;68005;31
2023/05/26 11:08:49;;;;;;;11.40;5.20;;;;;;;22.85;44.16;100574.31;105908;1296;67670;-86
2023/05/26 11:11:31;;;;;;;7.10;4.80;;;;;;;22.85;44.10;100574.52;106130;1294;73633;-86
2023/05/26 11:14:04;;;;;;;11.70;5.70;;;;;;;22.84;43.95;100562.56;106313;1294;82984;-86
2023/05/26 11:16:35;;;;;;;11.40;5.70;;;;;;;22.83;43.95;100566.58;105934;1295;72510;-87
2023/05/26 11:19:04;;;;;;;;;;;;;;;22.84;43.92;100562.56;105910;1295;67997;-87
2023/05/26 11:21:33;;;;;;;9.80;5.00;;;;;;;22.81;43.95;100556.64;105891;1293;68219;-87
2023/05/26 11:24:08;;;;;;;7.40;5.00;;;;;;;22.83;43.99;100559.09;105877;1295;67115;-92
2023/05/26 11:26:34;;;;;;;7.90;4.70;;;;;;;22.85;44.05;100547.67;105846;1295;83818;-87
2023/05/26 11:29:01;;;;;;;9.90;5.20;;;;;;;22.86;44.04;100546.23;105905;1295;67224;-86
2023/05/26 11:31:51;;;;;;;6.80;5.10;;;;;;;22.87;44.01;100547.61;105893;1295;67017;-87
2023/05/26 11:34:16;;;;;;;5.80;4.70;;;;;;;22.87;43.92;100543.77;105923;1295;67744;-86
2023/05/26 11:36:47;;;;;;;8.30;4.90;;;;;;;22.87;43.70;100538.38;105773;1294;68017;-85
2023/05/26 11:39:15;;;;;;;9.40;5.10;;;;;;;22.88;43.64;100533.90;106019;1294;82917;-86
2023/05/26 11:41:42;;;;;;;10.40;4.70;;;;;;;22.88;43.46;100526.58;106026;1294;67061;-85
2023/05/26 11:44:08;;;;;;;6.50;4.80;;;;;;;22.88;43.29;100517.69;105816;1296;67069;-85
2023/05/26 11:46:39;;;;;;;7.90;5.30;;;;;;;22.87;43.17;100512.46;106057;1294;67421;-85
2023/05/26 11:49:10;;;;;;;8.00;4.90;;;;;;;22.88;42.93;100507.58;106026;1294;73555;-85
2023/05/26 11:51:36;;;;;;;5.90;4.40;;;;;;;22.88;42.83;100503.33;105816;1295;83191;-86
2023/05/26 11:54:08;;;;;;;9.40;4.90;;;;;;;22.88;42.77;100499.80;106000;1294;67854;-86
2023/05/26 11:56:35;;;;;;;5.90;4.50;;;;;;;22.89;42.90;100495.83;105942;1294;67632;-85
2023/05/26 11:59:00;;;;;;;10.80;4.90;;;;;;;22.89;42.99;100498.55;106033;1294;67636;-86
2023/05/26 12:01:26;;;;;;;7.90;4.70;;;;;;;22.91;43.08;100499.73;105902;1294;67263;-86
2023/05/26 12:03:54;;;;;;;9.30;4.30;;;;;;;22.91;43.04;100493.55;105919;1294;67067;-85
2023/05/26 12:06:22;;;;;;;6.50;4.70;;;;;;;22.92;43.07;100495.04;105968;1294;71494;-86
2023/05/26 12:09:02;;;;;;;6.40;4.50;;;;;;;22.92;43.01;100492.52;105929;1294;67049;-91
2023/05/26 12:11:28;;;;;;;10.80;5.00;;;;;;;22.92;42.98;100485.60;105970;1294;67749;-86
2023/05/26 12:14:12;;;;;;;16.90;5.20;;;;;;;22.91;42.97;100483.86;105991;1294;67719;-86
2023/05/26 12:16:45;;;;;;;9.90;4.80;;;;;;;22.92;42.83;100484.73;105823;1294;83777;-85
2023/05/26 12:19:12;;;;;;;8.60;4.70;;;;;;;22.91;42.90;100479.59;105907;1295;73337;-86
2023/05/26 12:21:39;;;;;;;8.10;4.70;;;;;;;22.92;42.92;100485.23;105845;1295;67596;-86
2023/05/26 12:24:05;;;;;;;6.90;4.70;;;;;;;22.93;43.09;100474.77;106010;1295;68299;-86
2023/05/26 12:26:31;;;;;;;6.70;4.90;;;;;;;22.94;43.17;100474.71;106193;1294;67637;-86
2023/05/26 12:29:16;;;;;;;8.70;5.10;;;;;;;22.94;43.18;100471.27;106151;1300;67745;-88
2023/05/26 12:31:42;;;;;;;8.90;5.40;;;;;;;22.96;42.91;100471.05;105971;1297;67662;-87
2023/05/26 12:34:09;;;;;;;8.50;4.70;;;;;;;22.98;42.74;100467.96;105990;1294;68423;-87
2023/05/26 12:36:34;;;;;;;11.30;4.70;;;;;;;23.00;42.64;100462.35;105839;1294;67228;-87
2023/05/26 12:39:00;;;;;;;8.40;5.00;;;;;;;23.01;42.65;100468.29;106034;1294;67796;-86
2023/05/26 12:41:26;;;;;;;14.60;5.30;;;;;;;23.01;42.62;100463.25;106023;1295;67626;-86
2023/05/26 12:43:52;;;;;;;8.60;5.70;;;;;;;23.01;42.55;100454.52;106136;1294;67694;-86
2023/05/26 12:46:17;;;;;;;8.30;5.10;;;;;;;23.02;42.42;100455.45;106097;1294;67230;-86
2023/05/26 12:48:44;;;;;;;9.70;5.70;;;;;;;23.03;42.31;100452.30;106056;1294;67708;-86
2023/05/26 12:51:11;;;;;;;7.00;5.30;;;;;;;23.04;42.31;100449.33;106059;1294;83184;-86
2023/05/26 12:53:46;;;;;;;7.30;5.10;;;;;;;23.06;42.19;100449.94;105943;1295;73492;-91
2023/05/26 12:56:11;;;;;;;8.60;5.30;;;;;;;23.06;42.31;100453.93;105748;1295;67877;-86
2023/05/26 12:58:38;;;;;;;8.00;5.20;;;;;;;23.06;42.29;100452.80;105973;1294;68533;-86
2023/05/26 13:01:03;;;;;;;7.30;4.90;;;;;;;23.05;42.39;100449.77;106044;1294;67929;-86
2023/05/26 13:03:29;;;;;;;9.10;4.80;;;;;;;23.06;42.42;100446.80;106129;1294;67043;-86
2023/05/26 13:05:54;;;;;;;8.10;5.30;;;;;;;23.06;42.37;100447.05;106014;1294;68207;-87
2023/05/26 13:08:22;;;;;;;6.50;4.80;;;;;;;23.06;42.34;100449.98;106364;1294;67207;-86
2023/05/26 13:10:47;;;;;;;8.70;5.20;;;;;;;23.06;42.34;100450.50;106085;1297;71472;-86
2023/05/26 13:13:14;;;;;;;6.10;4.90;;;;;;;23.05;42.37;100450.34;106287;1294;67953;-86
2023/05/26 13:15:40;;;;;;;8.70;5.10;;;;;;;23.05;42.23;100448.91;105932;1294;67950;-85
2023/05/26 13:18:06;;;;;;;6.90;5.10;;;;;;;23.05;42.14;100449.20;106142;1295;67933;-85
2023/05/26 13:20:41;;;;;;;9.20;5.10;;;;;;;23.05;42.12;100445.21;106011;1294;67710;-89
2023/05/26 13:23:07;;;;;;;8.80;4.90;;;;;;;23.06;42.07;100447.00;106082;1294;74737;-84
2023/05/26 13:25:33;;;;;;;8.60;5.40;;;;;;;23.06;42.06;100445.01;106023;1294;67161;-86
2023/05/26 13:27:58;;;;;;;7.50;5.00;;;;;;;23.05;41.98;100443.98;106054;1295;67915;-85
2023/05/26 13:30:25;;;;;;;5.90;5.30;;;;;;;23.04;41.86;100438.91;106054;1294;67339;-85
2023/05/26 13:32:51;;;;;;;6.50;5.30;;;;;;;23.04;41.84;100440.66;105964;1295;67521;-85
2023/05/26 13:35:17;;;;;;;7.80;5.10;;;;;;;23.02;41.88;100443.75;105916;1294;67147;-85
2023/05/26 13:37:43;;;;;;;8.50;5.30;;;;;;;23.01;41.83;100449.41;105989;1293;67522;-85
2023/05/26 13:40:09;;;;;;;7.70;5.00;;;;;;;23.00;41.84;100446.33;105903;1297;67948;-85
2023/05/26 13:42:35;;;;;;;7.10;5.10;;;;;;;22.98;41.80;100440.92;105902;1293;68428;-85
2023/05/26 13:45:02;;;;;;;7.30;5.00;;;;;;;22.98;41.85;100437.33;105917;1295;67631;-86
2023/05/26 13:47:37;;;;;;;6.90;5.00;;;;;;;22.97;41.84;100433.99;105742;1295;84177;-91
2023/05/26 13:50:03;;;;;;;6.20;5.20;;;;;;;22.96;41.92;100430.83;105905;1294;67020;-86
2023/05/26 13:52:29;;;;;;;6.70;5.00;;;;;;;22.96;41.92;100430.11;105833;1295;67815;-86